Time;durP1;ratioP1;P1;durP2;ratioP2;P2;SDS_P1;SDS_P2;PMS_P1;PMS_P2;Temp;Humidity;BMP_temperature;BMP_pressure;BME280_temperature;BME280_humidity;BME280_pressure;Samples;Min_cycle;Max_cycle;Signal;HPM_P1;HPM_P2
2023/10/09 00:02:24;;;;;;;22.42;5.57;;;;;18.10;94845.00;;;;7397085;19;20922;-78
2023/10/09 00:04:52;;;;;;;23.92;5.18;;;;;18.00;94843.00;;;;7397633;19;20168;-77
2023/10/09 00:07:34;;;;;;;26.73;5.93;;;;;17.80;94832.00;;;;7397867;19;20144;-77
2023/10/09 00:10:11;;;;;;;25.27;5.40;;;;;17.80;94832.00;;;;7396488;19;20148;-78
2023/10/09 00:12:48;;;;;;;29.45;5.50;;;;;17.70;94837.00;;;;7398059;19;20133;-79
2023/10/09 00:15:27;;;;;;;19.73;4.70;;;;;17.90;94834.00;;;;7397810;19;20145;-77
2023/10/09 00:17:58;;;;;;;22.48;5.18;;;;;18.10;94834.00;;;;7397820;19;20588;-78
2023/10/09 00:20:42;;;;;;;22.33;5.60;;;;;17.90;94826.00;;;;7397485;19;20155;-78
2023/10/09 00:23:15;;;;;;;21.88;5.00;;;;;17.80;94826.00;;;;7398012;19;20120;-78
2023/10/09 00:26:08;;;;;;;21.17;4.47;;;;;17.70;94825.00;;;;7398137;19;20136;-78
2023/10/09 00:28:47;;;;;;;15.95;4.60;;;;;17.70;94819.00;;;;7395291;19;20133;-77
2023/10/09 00:31:33;;;;;;;19.13;4.65;;;;;17.80;94818.00;;;;7391130;19;20136;-79
2023/10/09 00:34:06;;;;;;;24.83;4.93;;;;;18.00;94822.00;;;;7393848;19;20144;-79
2023/10/09 00:36:50;;;;;;;28.80;4.90;;;;;18.00;94819.00;;;;7401152;19;20132;-79
2023/10/09 00:39:43;;;;;;;24.58;4.35;;;;;18.10;94815.00;;;;7398166;19;20148;-78
2023/10/09 00:42:27;;;;;;;18.50;4.32;;;;;18.20;94811.00;;;;7399157;19;20133;-77
2023/10/09 00:44:56;;;;;;;21.38;4.75;;;;;18.00;94815.00;;;;7398019;19;20148;-78
2023/10/09 00:47:34;;;;;;;23.50;4.20;;;;;17.90;94816.00;;;;7399995;19;20651;-78
2023/10/09 00:52:54;;;;;;;21.95;4.55;;;;;17.80;94811.00;;;;7398367;19;20153;-78
2023/10/09 00:58:13;;;;;;;25.75;4.20;;;;;17.70;94807.00;;;;7398756;19;20137;-78
2023/10/09 01:00:52;;;;;;;20.42;4.70;;;;;17.80;94805.00;;;;7392423;19;20192;-93
2023/10/09 01:03:33;;;;;;;22.42;4.82;;;;;17.90;94807.00;;;;7399527;19;20161;-89
2023/10/09 01:08:53;;;;;;;19.27;4.35;;;;;17.80;94793.00;;;;7400920;19;20132;-89
2023/10/09 01:11:23;;;;;;;19.60;4.32;;;;;18.00;94794.00;;;;7397282;19;20144;-88
2023/10/09 01:16:34;;;;;;;22.77;4.25;;;;;17.70;94787.00;;;;7398690;19;20140;-88
2023/10/09 01:19:24;;;;;;;22.95;4.45;;;;;17.90;94789.00;;;;7399325;19;20225;-88
2023/10/09 01:22:04;;;;;;;22.15;4.80;;;;;17.70;94794.00;;;;7399696;19;20156;-88
2023/10/09 01:24:39;;;;;;;17.52;3.80;;;;;17.70;94785.00;;;;7397910;19;20530;-87
2023/10/09 01:27:14;;;;;;;18.10;4.47;;;;;17.80;94780.00;;;;7399596;19;20136;-87
2023/10/09 01:29:51;;;;;;;22.25;4.07;;;;;18.00;94781.00;;;;7397099;19;20172;-89
2023/10/09 01:32:26;;;;;;;17.40;4.20;;;;;17.90;94778.00;;;;7398923;19;20630;-88
2023/10/09 01:35:01;;;;;;;21.42;4.18;;;;;18.00;94772.00;;;;7399245;19;20603;-89
2023/10/09 01:37:30;;;;;;;21.80;4.45;;;;;17.70;94772.00;;;;7398825;19;20141;-88
2023/10/09 01:40:26;;;;;;;16.40;4.25;;;;;17.60;94780.00;;;;7397626;19;20635;-87
2023/10/09 01:42:56;;;;;;;20.45;3.33;;;;;17.60;94771.00;;;;7399469;19;20133;-88
2023/10/09 01:45:41;;;;;;;16.83;3.95;;;;;17.70;94776.00;;;;7399183;19;20204;-89
2023/10/09 01:48:12;;;;;;;17.65;4.78;;;;;17.90;94777.00;;;;7398229;19;20472;-88
2023/10/09 01:50:48;;;;;;;19.00;3.55;;;;;18.00;94774.00;;;;7397235;19;20145;-87
2023/10/09 01:53:28;;;;;;;25.27;4.28;;;;;17.90;94771.00;;;;7398728;19;20144;-88
2023/10/09 01:56:17;;;;;;;17.77;4.57;;;;;17.90;94769.00;;;;7398165;19;20145;-88
2023/10/09 01:58:56;;;;;;;15.55;3.58;;;;;17.90;94765.00;;;;7397936;19;20149;-88
2023/10/09 02:01:32;;;;;;;15.23;3.67;;;;;17.90;94762.00;;;;7395446;19;20164;-88
2023/10/09 02:04:14;;;;;;;21.23;4.15;;;;;17.90;94761.00;;;;7399006;19;20140;-88
2023/10/09 02:06:52;;;;;;;18.77;3.83;;;;;17.90;94759.00;;;;7399933;19;20145;-89
2023/10/09 02:09:31;;;;;;;20.77;3.85;;;;;18.00;94757.00;;;;7411129;19;20164;-95
2023/10/09 02:12:00;;;;;;;12.43;4.07;;;;;18.00;94760.00;;;;7412234;19;20163;-95
2023/10/09 02:14:41;;;;;;;18.30;3.95;;;;;18.10;94756.00;;;;7412247;19;20140;-91
2023/10/09 02:17:19;;;;;;;17.40;3.95;;;;;18.10;94751.00;;;;7414343;19;20144;-93
2023/10/09 02:19:53;;;;;;;16.77;4.03;;;;;18.20;94749.00;;;;7411798;19;20139;-90
2023/10/09 02:22:34;;;;;;;11.13;3.05;;;;;18.10;94745.00;;;;7414452;19;20168;-93
2023/10/09 02:25:05;;;;;;;18.65;4.50;;;;;18.10;94744.00;;;;7413217;19;20596;-92
2023/10/09 02:27:53;;;;;;;18.88;4.25;;;;;18.10;94748.00;;;;7412401;19;20175;-90
2023/10/09 02:30:27;;;;;;;12.80;3.60;;;;;18.10;94753.00;;;;7410376;19;20148;-94
2023/10/09 02:33:09;;;;;;;19.25;4.07;;;;;18.00;94753.00;;;;7413280;19;20148;-94
2023/10/09 02:35:44;;;;;;;15.40;4.00;;;;;17.90;94751.00;;;;7412905;19;20143;-94
2023/10/09 02:38:23;;;;;;;18.38;3.90;;;;;18.00;94756.00;;;;7410348;19;20479;-93
2023/10/09 02:43:47;;;;;;;18.45;3.63;;;;;18.10;94741.00;;;;7407578;19;20144;-90
2023/10/09 02:46:20;;;;;;;20.98;3.92;;;;;18.20;94746.00;;;;7409140;19;20140;-91
2023/10/09 02:48:57;;;;;;;17.10;4.07;;;;;18.40;94741.00;;;;7412935;19;20528;-96
2023/10/09 02:57:21;;;;;;;23.45;4.38;;;;;18.50;94731.00;;;;7414876;19;20619;-95
2023/10/09 02:59:53;;;;;;;17.15;4.03;;;;;18.50;94736.00;;;;7412626;19;20148;-95
2023/10/09 03:02:33;;;;;;;21.70;4.35;;;;;18.40;94736.00;;;;7409024;19;20190;-95
2023/10/09 03:05:12;;;;;;;21.90;5.88;;;;;18.60;94727.00;;;;7413234;19;20149;-94
2023/10/09 03:07:40;;;;;;;25.65;5.18;;;;;18.60;94738.00;;;;7409825;19;20129;-93
2023/10/09 03:10:15;;;;;;;24.45;6.10;;;;;18.80;94729.00;;;;7407634;19;20141;-94
2023/10/09 03:12:52;;;;;;;28.55;4.93;;;;;18.60;94727.00;;;;7408905;19;20650;-93
2023/10/09 03:15:35;;;;;;;19.73;4.38;;;;;18.70;94715.00;;;;7414253;19;20212;-96
2023/10/09 03:18:04;;;;;;;18.90;4.55;;;;;18.70;94719.00;;;;7411081;19;20614;-88
2023/10/09 03:20:40;;;;;;;29.02;4.45;;;;;18.70;94724.00;;;;7402195;19;20136;-87
2023/10/09 03:23:09;;;;;;;22.92;5.05;;;;;18.90;94719.00;;;;7403284;19;20177;-89
2023/10/09 03:25:46;;;;;;;26.42;4.88;;;;;18.90;94724.00;;;;7405715;19;20648;-87
2023/10/09 03:28:15;;;;;;;23.48;4.45;;;;;18.90;94715.00;;;;7402408;19;20152;-89
2023/10/09 03:30:50;;;;;;;25.95;5.47;;;;;18.70;94711.00;;;;7401481;19;20146;-89
2023/10/09 03:33:18;;;;;;;27.58;4.90;;;;;18.60;94713.00;;;;7403608;19;20145;-88
2023/10/09 03:35:53;;;;;;;29.63;4.85;;;;;18.60;94705.00;;;;7403345;19;20541;-89
2023/10/09 03:38:21;;;;;;;24.02;5.03;;;;;18.80;94701.00;;;;7403300;19;20616;-87
2023/10/09 03:40:55;;;;;;;21.27;4.60;;;;;18.80;94707.00;;;;7402767;19;20133;-86
2023/10/09 03:43:24;;;;;;;22.60;5.30;;;;;18.90;94699.00;;;;7402156;19;20307;-85
2023/10/09 03:46:03;;;;;;;22.92;5.32;;;;;18.80;94702.00;;;;7402506;19;20557;-85
2023/10/09 03:48:36;;;;;;;20.73;4.55;;;;;18.90;94700.00;;;;7402430;19;20603;-86
2023/10/09 03:51:20;;;;;;;21.60;4.20;;;;;19.00;94699.00;;;;7402213;19;20615;-87
2023/10/09 03:53:52;;;;;;;20.95;4.93;;;;;19.00;94700.00;;;;7403210;19;20918;-88
2023/10/09 03:56:26;;;;;;;28.15;5.05;;;;;19.00;94706.00;;;;7402982;19;20479;-87
2023/10/09 03:58:54;;;;;;;24.90;4.47;;;;;18.90;94714.00;;;;7402207;19;20144;-86
2023/10/09 04:01:29;;;;;;;17.73;4.65;;;;;18.80;94712.00;;;;7400960;19;20200;-89
2023/10/09 04:04:13;;;;;;;15.98;4.57;;;;;18.90;94710.00;;;;7403025;19;20212;-87
2023/10/09 04:06:42;;;;;;;17.20;3.88;;;;;19.00;94707.00;;;;7401660;19;20125;-88
2023/10/09 04:11:57;;;;;;;25.80;4.10;;;;;18.70;94718.00;;;;7404662;19;20145;-87
2023/10/09 04:14:34;;;;;;;30.25;5.03;;;;;18.80;94716.00;;;;7402055;19;20141;-88
2023/10/09 04:17:32;;;;;;;18.70;4.50;;;;;18.80;94702.00;;;;7400649;19;20149;-87
2023/10/09 04:25:42;;;;;;;17.70;4.57;;;;;18.60;94703.00;;;;7401189;19;20194;-87
2023/10/09 04:28:19;;;;;;;24.15;4.95;;;;;18.70;94698.00;;;;7404625;19;20136;-89
2023/10/09 04:30:55;;;;;;;31.08;4.40;;;;;18.90;94708.00;;;;7405813;19;20149;-95
2023/10/09 04:39:06;;;;;;;17.67;4.25;;;;;18.80;94708.00;;;;7409541;19;20185;-93
2023/10/09 04:44:36;;;;;;;14.77;4.13;;;;;18.80;94709.00;;;;7407147;19;20145;-91
2023/10/09 04:57:46;;;;;;;15.65;4.85;;;;;18.80;94729.00;;;;7407564;19;20140;-90
2023/10/09 05:03:10;;;;;;;18.35;3.72;;;;;18.90;94724.00;;;;7400128;19;20172;-90
2023/10/09 05:08:21;;;;;;;17.58;4.25;;;;;18.80;94723.00;;;;7413324;19;20172;-90
2023/10/09 05:11:15;;;;;;;15.02;3.78;;;;;18.90;94722.00;;;;7407718;19;20132;-91
2023/10/09 05:14:11;;;;;;;18.25;3.78;;;;;18.90;94722.00;;;;7416865;19;20144;-92
2023/10/09 05:16:54;;;;;;;17.42;4.25;;;;;19.00;94722.00;;;;7410462;19;20165;-94
2023/10/09 05:20:55;;;;;;;20.95;3.95;;;;;19.00;94733.00;;;;7405548;19;20152;-93
2023/10/09 05:22:36;;;;;;;15.75;4.03;;;;;19.00;94731.00;;;;7410469;19;20140;-94
2023/10/09 05:25:16;;;;;;;14.63;3.90;;;;;18.90;94728.00;;;;7399901;19;20156;-89
2023/10/09 05:27:50;;;;;;;18.17;3.72;;;;;19.00;94731.00;;;;7403430;19;20531;-93
2023/10/09 05:30:25;;;;;;;19.73;4.10;;;;;18.90;94734.00;;;;7402577;19;20462;-90
2023/10/09 05:36:47;;;;;;;22.35;4.45;;;;;18.80;94733.00;;;;7404499;19;20513;-91
2023/10/09 05:38:58;;;;;;;24.10;4.13;;;;;18.80;94732.00;;;;7405160;19;20224;-89
2023/10/09 05:41:51;;;;;;;19.63;3.80;;;;;18.80;94729.00;;;;7399563;19;20144;-90
2023/10/09 05:47:31;;;;;;;19.80;4.30;;;;;18.80;94740.00;;;;7402064;19;20151;-89
2023/10/09 05:50:33;;;;;;;12.48;3.85;;;;;18.70;94746.00;;;;7399989;19;20141;-89
2023/10/09 05:53:06;;;;;;;17.92;4.13;;;;;18.60;94743.00;;;;7398206;19;20253;-89
2023/10/09 06:04:33;;;;;;;14.18;3.40;;;;;18.70;94761.00;;;;7398400;19;20501;-89
2023/10/09 06:07:24;;;;;;;15.52;3.85;;;;;18.70;94746.00;;;;7398976;19;20611;-88
2023/10/09 06:09:56;;;;;;;16.52;3.90;;;;;18.80;94757.00;;;;7397882;19;20550;-89
2023/10/09 06:15:32;;;;;;;21.13;4.57;;;;;18.90;94758.00;;;;7399347;19;20141;-92
2023/10/09 06:21:38;;;;;;;18.20;3.83;;;;;18.70;94748.00;;;;7400067;19;20200;-89
2023/10/09 06:24:14;;;;;;;27.58;4.03;;;;;18.70;94757.00;;;;7396424;19;20144;-87
2023/10/09 06:29:38;;;;;;;19.08;4.68;;;;;18.70;94751.00;;;;7393024;19;20128;-88
2023/10/09 06:35:18;;;;;;;18.08;4.00;;;;;18.60;94759.00;;;;7390266;19;20128;-88
2023/10/09 06:41:34;;;;;;;28.23;4.30;;;;;18.80;94762.00;;;;7394510;19;20125;-87
2023/10/09 06:43:36;;;;;;;27.55;4.70;;;;;18.70;94756.00;;;;7388108;19;20149;-87
2023/10/09 06:46:43;;;;;;;27.92;4.22;;;;;18.70;94765.00;;;;7387191;19;20149;-88
2023/10/09 06:49:29;;;;;;;23.67;4.28;;;;;18.80;94762.00;;;;7390231;19;20140;-90
2023/10/09 06:52:15;;;;;;;26.13;4.43;;;;;18.80;94764.00;;;;7385324;19;20141;-91
2023/10/09 06:54:50;;;;;;;25.20;4.55;;;;;18.80;94768.00;;;;7390297;19;20208;-89
2023/10/09 07:03:12;;;;;;;21.50;4.00;;;;;19.00;94767.00;;;;7394880;19;20156;-90
2023/10/09 07:08:37;;;;;;;30.65;5.00;;;;;19.00;94756.00;;;;7395758;19;20168;-91
2023/10/09 07:11:57;;;;;;;22.35;4.97;;;;;19.10;94763.00;;;;7396008;19;20128;-94
2023/10/09 07:20:13;;;;;;;23.42;4.78;;;;;19.20;94767.00;;;;7389675;19;20878;-92
2023/10/09 07:22:56;;;;;;;34.42;5.75;;;;;19.10;94765.00;;;;7388114;19;21393;-90
2023/10/09 07:25:40;;;;;;;27.40;5.00;;;;;19.00;94765.00;;;;7388278;19;20520;-87
2023/10/09 07:28:36;;;;;;;32.40;5.43;;;;;19.10;94769.00;;;;7396134;19;20152;-90
2023/10/09 07:31:39;;;;;;;36.13;5.55;;;;;19.20;94769.00;;;;7395993;19;20132;-90
2023/10/09 07:34:32;;;;;;;32.45;6.70;;;;;19.10;94766.00;;;;7399050;19;20144;-87
2023/10/09 07:37:06;;;;;;;25.75;4.85;;;;;19.20;94760.00;;;;7397813;19;20150;-91
2023/10/09 07:39:49;;;;;;;25.33;5.32;;;;;19.20;94765.00;;;;7397449;19;20152;-88
2023/10/09 07:42:33;;;;;;;33.47;5.20;;;;;19.40;94757.00;;;;7396676;19;20132;-92
2023/10/09 07:45:54;;;;;;;25.25;5.63;;;;;19.40;94758.00;;;;7397055;19;20216;-91
2023/10/09 07:48:04;;;;;;;26.08;5.70;;;;;19.60;94754.00;;;;7385446;19;20137;-90
2023/10/09 07:50:48;;;;;;;27.70;5.32;;;;;19.50;94760.00;;;;7385221;19;20156;-89
2023/10/09 07:53:26;;;;;;;31.08;6.30;;;;;19.50;94762.00;;;;7383873;19;20476;-89
2023/10/09 07:55:55;;;;;;;35.15;5.25;;;;;19.50;94765.00;;;;7383197;19;20160;-88
2023/10/09 07:58:46;;;;;;;33.55;5.88;;;;;19.60;94763.00;;;;7385759;19;20157;-92
2023/10/09 08:01:34;;;;;;;24.15;5.15;;;;;19.50;94761.00;;;;7396530;19;20182;-92
2023/10/09 08:04:20;;;;;;;32.85;6.22;;;;;19.70;94759.00;;;;7398621;19;20141;-92
2023/10/09 08:06:57;;;;;;;31.02;4.93;;;;;19.80;94760.00;;;;7398148;19;20168;-94
2023/10/09 08:10:43;;;;;;;41.00;5.60;;;;;19.80;94764.00;;;;7399292;19;20202;-92
2023/10/09 08:17:54;;;;;;;26.75;5.38;;;;;20.00;94773.00;;;;7396839;19;20156;-90
2023/10/09 08:20:36;;;;;;;28.13;5.22;;;;;20.00;94771.00;;;;7399421;19;20132;-92
2023/10/09 08:23:18;;;;;;;31.02;5.53;;;;;20.10;94776.00;;;;7396479;19;20500;-92
2023/10/09 08:26:14;;;;;;;39.38;6.43;;;;;20.10;94780.00;;;;7397052;19;20140;-92
2023/10/09 08:28:46;;;;;;;39.60;5.53;;;;;20.30;94774.00;;;;7393907;19;20154;-91
2023/10/09 08:31:56;;;;;;;39.17;5.80;;;;;20.10;94777.00;;;;7384098;19;20652;-91
2023/10/09 08:34:53;;;;;;;28.45;5.18;;;;;19.90;94784.00;;;;7386255;19;20157;-88
2023/10/09 08:37:40;;;;;;;25.20;5.15;;;;;20.00;94787.00;;;;7390510;19;20152;-91
2023/10/09 08:40:10;;;;;;;23.45;5.10;;;;;19.80;94785.00;;;;7397336;19;20153;-91
2023/10/09 08:42:54;;;;;;;26.33;4.97;;;;;20.00;94793.00;;;;7397880;19;20156;-93
2023/10/09 08:45:27;;;;;;;27.05;4.90;;;;;20.00;94792.00;;;;7396398;19;20172;-89
2023/10/09 08:48:04;;;;;;;25.05;4.43;;;;;20.00;94796.00;;;;7400546;19;20141;-95
2023/10/09 08:50:35;;;;;;;28.15;4.72;;;;;19.80;94788.00;;;;7396356;19;20166;-89
2023/10/09 08:53:10;;;;;;;27.55;5.22;;;;;19.80;94789.00;;;;7388126;19;20168;-91
2023/10/09 08:55:39;;;;;;;24.63;4.60;;;;;20.00;94794.00;;;;7384002;19;20148;-89
2023/10/09 08:58:24;;;;;;;24.85;4.22;;;;;19.90;94798.00;;;;7384138;19;20328;-91
2023/10/09 09:01:00;;;;;;;19.85;4.55;;;;;19.70;94805.00;;;;7383200;19;20209;-90
2023/10/09 09:03:45;;;;;;;14.27;3.88;;;;;19.70;94804.00;;;;7385101;19;20174;-89
2023/10/09 09:06:19;;;;;;;20.02;4.53;;;;;19.90;94813.00;;;;7384757;19;20141;-89
2023/10/09 09:09:13;;;;;;;23.80;4.40;;;;;20.00;94815.00;;;;7385454;19;20176;-88
2023/10/09 09:11:52;;;;;;;21.83;3.80;;;;;20.10;94809.00;;;;7384908;19;20185;-88
2023/10/09 09:14:37;;;;;;;22.27;4.45;;;;;20.20;94809.00;;;;7394449;19;20141;-87
2023/10/09 09:17:11;;;;;;;23.10;4.15;;;;;20.00;94809.00;;;;7392382;19;20726;-88
2023/10/09 09:19:52;;;;;;;18.05;4.13;;;;;20.10;94808.00;;;;7396231;19;20152;-87
2023/10/09 09:22:27;;;;;;;25.10;4.22;;;;;19.90;94810.00;;;;7395785;19;20163;-89
2023/10/09 09:25:09;;;;;;;31.83;5.10;;;;;19.90;94811.00;;;;7398388;19;20160;-88
2023/10/09 09:27:52;;;;;;;23.90;4.85;;;;;20.00;94816.00;;;;7398283;19;20156;-86
2023/10/09 09:30:37;;;;;;;18.60;4.30;;;;;20.10;94816.00;;;;7395752;19;20158;-86
2023/10/09 09:36:17;;;;;;;20.52;3.72;;;;;20.10;94819.00;;;;7396171;19;20148;-87
2023/10/09 09:38:50;;;;;;;19.92;4.32;;;;;20.30;94824.00;;;;7394450;19;20162;-89
2023/10/09 09:41:25;;;;;;;19.15;5.13;;;;;20.50;94818.00;;;;7396597;19;20507;-93
2023/10/09 09:44:01;;;;;;;21.77;4.00;;;;;20.80;94816.00;;;;7394543;19;20152;-90
2023/10/09 09:46:37;;;;;;;27.42;4.45;;;;;20.80;94825.00;;;;7394203;19;20135;-94
2023/10/09 09:49:12;;;;;;;28.02;4.40;;;;;20.80;94818.00;;;;7396585;19;20117;-88
2023/10/09 09:51:48;;;;;;;33.80;4.75;;;;;20.90;94815.00;;;;7394563;19;20184;-90
2023/10/09 09:54:16;;;;;;;23.77;4.25;;;;;21.00;94826.00;;;;7395643;19;20148;-88
2023/10/09 09:56:56;;;;;;;26.38;4.32;;;;;21.00;94811.00;;;;7392382;19;20152;-89
2023/10/09 09:59:35;;;;;;;22.38;4.93;;;;;21.20;94817.00;;;;7394807;19;20261;-85
2023/10/09 10:02:11;;;;;;;20.05;4.43;;;;;21.10;94813.00;;;;7391725;19;20176;-88
2023/10/09 10:04:56;;;;;;;13.18;3.85;;;;;21.20;94820.00;;;;7392976;19;20165;-87
2023/10/09 10:07:41;;;;;;;14.65;3.53;;;;;21.00;94805.00;;;;7391304;19;20144;-87
2023/10/09 10:10:39;;;;;;;21.42;4.13;;;;;21.30;94802.00;;;;7393734;19;20149;-90
2023/10/09 10:13:14;;;;;;;19.73;4.28;;;;;21.40;94809.00;;;;7392835;19;20152;-89
2023/10/09 10:15:57;;;;;;;15.02;3.60;;;;;21.30;94813.00;;;;7395720;19;20148;-84
2023/10/09 10:18:35;;;;;;;15.45;4.10;;;;;21.50;94808.00;;;;7393536;19;20136;-89
2023/10/09 10:21:15;;;;;;;19.50;3.90;;;;;21.40;94820.00;;;;7392346;19;20149;-90
2023/10/09 10:23:52;;;;;;;14.05;4.07;;;;;21.50;94818.00;;;;7394478;19;20164;-89
2023/10/09 10:26:25;;;;;;;18.50;4.03;;;;;21.90;94810.00;;;;7391711;19;20165;-87
2023/10/09 10:29:33;;;;;;;15.57;3.90;;;;;22.40;94803.00;;;;7395070;19;20142;-90
2023/10/09 10:32:08;;;;;;;16.17;4.20;;;;;22.00;94812.00;;;;7397980;19;20137;-87
2023/10/09 10:34:57;;;;;;;15.23;4.22;;;;;22.10;94806.00;;;;7400272;19;20627;-90
2023/10/09 10:37:51;;;;;;;19.30;4.53;;;;;21.70;94807.00;;;;7401407;19;20204;-89
2023/10/09 10:40:41;;;;;;;15.18;3.72;;;;;21.60;94805.00;;;;7401872;19;20133;-90
2023/10/09 10:43:47;;;;;;;15.65;3.70;;;;;21.50;94810.00;;;;7398679;19;20125;-88
2023/10/09 10:49:15;;;;;;;10.00;3.38;;;;;21.70;94799.00;;;;7396645;19;20257;-86
2023/10/09 10:52:15;;;;;;;10.68;3.83;;;;;21.80;94801.00;;;;7395355;19;20155;-85
2023/10/09 10:55:17;;;;;;;14.85;4.03;;;;;21.80;94806.00;;;;7397202;19;20159;-87
2023/10/09 10:57:53;;;;;;;15.85;3.92;;;;;21.70;94796.00;;;;7397963;19;20140;-89
2023/10/09 11:03:35;;;;;;;17.33;3.38;;;;;21.50;94808.00;;;;7394240;19;20231;-88
2023/10/09 11:06:15;;;;;;;14.30;4.15;;;;;21.70;94808.00;;;;7400557;19;20990;-88
2023/10/09 11:08:58;;;;;;;16.02;3.95;;;;;22.00;94810.00;;;;7390793;19;20209;-88
2023/10/09 11:11:40;;;;;;;11.85;3.83;;;;;21.60;94807.00;;;;7384234;19;20125;-86
2023/10/09 11:14:15;;;;;;;12.90;4.00;;;;;21.60;94804.00;;;;7389381;19;20702;-90
2023/10/09 11:16:57;;;;;;;7.95;3.70;;;;;21.60;94809.00;;;;7395984;19;20125;-90
2023/10/09 11:25:11;;;;;;;15.00;3.65;;;;;21.30;94815.00;;;;7398767;19;20165;-90
2023/10/09 11:27:50;;;;;;;11.90;4.10;;;;;21.20;94820.00;;;;7397328;19;20160;-90
2023/10/09 11:30:32;;;;;;;14.48;4.15;;;;;21.10;94828.00;;;;7396744;19;20140;-87
2023/10/09 11:33:14;;;;;;;12.98;4.57;;;;;21.20;94822.00;;;;7394502;19;20149;-88
2023/10/09 11:35:59;;;;;;;11.30;3.92;;;;;21.00;94824.00;;;;7394014;19;20167;-86
2023/10/09 11:38:45;;;;;;;10.57;4.00;;;;;21.00;94823.00;;;;7395430;19;20615;-88
2023/10/09 11:41:24;;;;;;;10.50;3.90;;;;;21.20;94817.00;;;;7394232;19;20167;-86
2023/10/09 11:43:58;;;;;;;8.98;4.05;;;;;20.90;94808.00;;;;7395744;19;20144;-86
2023/10/09 11:46:50;;;;;;;9.02;3.80;;;;;20.70;94827.00;;;;7393074;19;20141;-86
2023/10/09 11:49:36;;;;;;;13.45;3.65;;;;;20.90;94804.00;;;;7393297;19;20133;-91
2023/10/09 11:52:35;;;;;;;14.60;4.10;;;;;20.80;94804.00;;;;7396376;19;20176;-91
2023/10/09 11:55:07;;;;;;;22.15;4.35;;;;;20.80;94803.00;;;;7396736;19;20137;-90
2023/10/09 11:57:42;;;;;;;11.10;3.70;;;;;20.80;94793.00;;;;7396041;19;20214;-90
2023/10/09 12:00:42;;;;;;;10.82;3.90;;;;;20.60;94789.00;;;;7396854;19;20148;-89
2023/10/09 12:03:14;;;;;;;11.98;4.38;;;;;20.80;94786.00;;;;7395703;19;20160;-91
2023/10/09 12:05:48;;;;;;;10.25;4.07;;;;;21.20;94781.00;;;;7396125;19;20149;-91
2023/10/09 12:08:26;;;;;;;14.43;3.92;;;;;21.30;94776.00;;;;7394972;19;20132;-90
2023/10/09 12:11:08;;;;;;;12.18;4.72;;;;;21.40;94765.00;;;;7384554;19;20703;-90
2023/10/09 12:13:42;;;;;;;10.13;4.15;;;;;21.40;94763.00;;;;7383078;19;20606;-90
2023/10/09 12:16:16;;;;;;;10.07;4.35;;;;;21.60;94750.00;;;;7393572;19;20149;-88
2023/10/09 12:18:52;;;;;;;9.50;3.97;;;;;21.60;94746.00;;;;7396044;19;20156;-91
2023/10/09 12:21:31;;;;;;;7.72;4.20;;;;;21.90;94739.00;;;;7383315;19;20552;-90
2023/10/09 12:23:58;;;;;;;12.88;4.68;;;;;22.00;94739.00;;;;7384377;19;20153;-91
2023/10/09 12:26:40;;;;;;;11.20;4.75;;;;;22.30;94736.00;;;;7384401;19;20149;-91
2023/10/09 12:29:12;;;;;;;14.13;4.45;;;;;22.40;94737.00;;;;7383837;19;20133;-89
2023/10/09 12:31:46;;;;;;;12.40;4.55;;;;;22.50;94730.00;;;;7383657;19;21123;-90
2023/10/09 12:34:22;;;;;;;11.45;4.80;;;;;22.80;94721.00;;;;7379517;19;20614;-89
2023/10/09 12:36:50;;;;;;;16.27;4.75;;;;;22.80;94715.00;;;;7384077;19;20137;-90
2023/10/09 12:39:25;;;;;;;13.88;4.68;;;;;22.90;94715.00;;;;7387185;19;20635;-91
2023/10/09 12:41:58;;;;;;;12.98;5.00;;;;;23.20;94710.00;;;;7386856;19;20161;-90
2023/10/09 12:44:38;;;;;;;14.57;5.28;;;;;23.60;94708.00;;;;7389571;19;20505;-91
2023/10/09 12:47:12;;;;;;;12.35;4.90;;;;;23.70;94712.00;;;;7383593;19;20149;-88
2023/10/09 12:49:49;;;;;;;13.70;5.70;;;;;23.50;94726.00;;;;7389032;19;20168;-92
2023/10/09 12:52:16;;;;;;;11.68;5.03;;;;;23.00;94723.00;;;;7388906;19;20940;-92
2023/10/09 12:54:48;;;;;;;11.18;4.85;;;;;22.80;94690.00;;;;7388399;19;20228;-92
2023/10/09 12:57:23;;;;;;;11.55;5.15;;;;;23.10;94734.00;;;;7388952;19;20163;-91
2023/10/09 12:59:54;;;;;;;14.85;5.35;;;;;22.90;94728.00;;;;7393501;19;20709;-90
2023/10/09 13:02:28;;;;;;;12.25;5.55;;;;;22.80;94730.00;;;;7391077;19;20179;-90
2023/10/09 13:05:07;;;;;;;12.70;4.97;;;;;23.40;94711.00;;;;7389832;19;20152;-89
2023/10/09 13:07:44;;;;;;;18.13;5.20;;;;;24.50;94707.00;;;;7387095;19;20165;-90
2023/10/09 13:10:19;;;;;;;12.65;5.70;;;;;26.80;94705.00;;;;7391832;19;20132;-87
2023/10/09 13:12:56;;;;;;;13.27;5.65;;;;;27.10;94712.00;;;;7393201;19;20164;-86
2023/10/09 13:15:42;;;;;;;13.35;5.72;;;;;26.90;94722.00;;;;7392111;19;20574;-85
2023/10/09 13:18:18;;;;;;;19.40;6.35;;;;;26.40;94734.00;;;;7392382;19;20144;-86
2023/10/09 13:21:03;;;;;;;10.73;5.70;;;;;24.90;94740.00;;;;7393559;19;20165;-85
2023/10/09 13:23:46;;;;;;;17.40;5.80;;;;;23.80;94745.00;;;;7391995;19;20129;-84
2023/10/09 13:26:27;;;;;;;14.80;5.68;;;;;24.10;94736.00;;;;7391991;19;20160;-84
2023/10/09 13:29:11;;;;;;;11.82;5.22;;;;;23.50;94744.00;;;;7393087;19;20204;-86
2023/10/09 13:31:49;;;;;;;13.82;5.72;;;;;23.50;94741.00;;;;7393734;19;20151;-88
2023/10/09 13:34:18;;;;;;;11.15;5.28;;;;;23.30;94740.00;;;;7392611;19;20179;-86
2023/10/09 13:36:58;;;;;;;13.57;5.20;;;;;23.50;94728.00;;;;7393718;19;20139;-85
2023/10/09 13:39:26;;;;;;;16.35;5.57;;;;;24.20;94724.00;;;;7393313;19;20141;-83
2023/10/09 13:42:07;;;;;;;14.77;5.00;;;;;23.40;94734.00;;;;7393809;19;20208;-84
2023/10/09 13:44:42;;;;;;;12.32;4.85;;;;;23.30;94728.00;;;;7392987;19;20152;-85
2023/10/09 13:47:19;;;;;;;10.88;4.75;;;;;23.50;94735.00;;;;7392370;19;20613;-87
2023/10/09 13:49:57;;;;;;;15.50;5.15;;;;;24.10;94714.00;;;;7391464;19;20493;-87
2023/10/09 13:52:30;;;;;;;13.57;5.78;;;;;24.00;94717.00;;;;7390842;19;20192;-86
2023/10/09 13:55:15;;;;;;;12.73;5.95;;;;;24.40;94710.00;;;;7390853;19;20147;-86
2023/10/09 13:57:57;;;;;;;18.80;5.82;;;;;24.30;94721.00;;;;7391850;19;20128;-88
2023/10/09 14:00:41;;;;;;;19.30;5.30;;;;;24.00;94719.00;;;;7392363;19;20132;-86
2023/10/09 14:03:24;;;;;;;12.88;5.32;;;;;23.60;94715.00;;;;7393361;19;20153;-88
2023/10/09 14:06:10;;;;;;;17.75;5.13;;;;;23.60;94710.00;;;;7403775;19;20131;-86
2023/10/09 14:08:44;;;;;;;11.45;5.00;;;;;23.80;94712.00;;;;7403436;19;20207;-91
2023/10/09 14:11:20;;;;;;;13.38;5.10;;;;;23.50;94712.00;;;;7397454;19;20156;-91
2023/10/09 14:14:00;;;;;;;17.55;5.50;;;;;23.60;94697.00;;;;7394953;19;20631;-89
2023/10/09 14:16:42;;;;;;;21.73;6.15;;;;;23.50;94700.00;;;;7395714;19;20125;-90
2023/10/09 14:19:20;;;;;;;11.65;5.28;;;;;23.50;94689.00;;;;7393480;19;20152;-86
2023/10/09 14:21:51;;;;;;;16.02;6.35;;;;;23.40;94688.00;;;;7394700;19;20587;-88
2023/10/09 14:24:32;;;;;;;19.10;5.95;;;;;23.50;94691.00;;;;7395926;19;20151;-87
2023/10/09 14:27:06;;;;;;;19.75;6.05;;;;;23.60;94692.00;;;;7395764;19;20140;-88
2023/10/09 14:29:42;;;;;;;15.27;4.97;;;;;24.00;94695.00;;;;7395218;19;20155;-88
2023/10/09 14:32:17;;;;;;;14.20;5.25;;;;;23.90;94696.00;;;;7392940;19;20140;-89
2023/10/09 14:34:53;;;;;;;15.27;5.03;;;;;23.90;94697.00;;;;7391919;19;20605;-89
2023/10/09 14:37:21;;;;;;;13.98;5.18;;;;;24.20;94692.00;;;;7393722;19;20137;-90
2023/10/09 14:39:56;;;;;;;15.18;5.43;;;;;24.10;94699.00;;;;7391905;19;20141;-90
2023/10/09 14:42:27;;;;;;;13.68;4.82;;;;;24.30;94703.00;;;;7391298;19;20534;-90
2023/10/09 14:45:07;;;;;;;18.77;5.72;;;;;24.50;94693.00;;;;7391833;19;20200;-88
2023/10/09 14:47:42;;;;;;;13.25;5.57;;;;;24.90;94695.00;;;;7400845;19;20135;-88
2023/10/09 14:50:23;;;;;;;17.95;5.45;;;;;24.60;94694.00;;;;7404178;19;20476;-90
2023/10/09 14:53:01;;;;;;;11.27;5.30;;;;;24.10;94691.00;;;;7402847;19;20148;-91
2023/10/09 14:55:35;;;;;;;11.35;4.90;;;;;23.90;94698.00;;;;7406216;19;20817;-89
2023/10/09 14:58:11;;;;;;;11.63;4.63;;;;;24.10;94692.00;;;;7406090;19;20569;-86
2023/10/09 15:00:46;;;;;;;14.52;5.22;;;;;23.80;94705.00;;;;7406036;19;20691;-88
2023/10/09 15:03:28;;;;;;;15.60;5.30;;;;;24.00;94698.00;;;;7403929;19;20264;-87
2023/10/09 15:06:02;;;;;;;8.93;4.70;;;;;24.00;94699.00;;;;7407131;19;20136;-89